sensor_id;sensor_type;location;lat;lon;timestamp;pressure;altitude;pressure_sealevel;temperature;humidity
35519;BME280;21627;48.216;16.482;2022-12-29T00:00:09;100073.16;;;-1.70;100.00
35519;BME280;21627;48.216;16.482;2022-12-29T00:02:36;100059.44;;;-1.74;100.00
35519;BME280;21627;48.216;16.482;2022-12-29T00:05:04;100065.41;;;-1.73;100.00
35519;BME280;21627;48.216;16.482;2022-12-29T00:07:32;100066.13;;;-1.76;100.00
35519;BME280;21627;48.216;16.482;2022-12-29T00:09:59;100059.72;;;-1.84;100.00
35519;BME280;21627;48.216;16.482;2022-12-29T00:12:26;100065.06;;;-1.80;100.00
35519;BME280;21627;48.216;16.482;2022-12-29T00:15:13;100068.41;;;-1.81;100.00
35519;BME280;21627;48.216;16.482;2022-12-29T00:18:03;100061.94;;;-1.90;100.00
35519;BME280;21627;48.216;16.482;2022-12-29T00:20:37;100075.66;;;-1.87;100.00
35519;BME280;21627;48.216;16.482;2022-12-29T00:23:23;100059.97;;;-1.96;100.00
35519;BME280;21627;48.216;16.482;2022-12-29T00:26:16;100078.97;;;-1.88;100.00
35519;BME280;21627;48.216;16.482;2022-12-29T00:29:02;100076.44;;;-1.88;100.00
35519;BME280;21627;48.216;16.482;2022-12-29T00:31:48;100062.22;;;-2.01;100.00
35519;BME280;21627;48.216;16.482;2022-12-29T00:34:34;100077.25;;;-1.89;100.00
35519;BME280;21627;48.216;16.482;2022-12-29T00:37:20;100066.50;;;-2.00;100.00
35519;BME280;21627;48.216;16.482;2022-12-29T00:40:08;100079.53;;;-1.93;100.00
35519;BME280;21627;48.216;16.482;2022-12-29T00:42:54;100078.66;;;-1.94;100.00
35519;BME280;21627;48.216;16.482;2022-12-29T00:45:41;100085.31;;;-1.96;100.00
35519;BME280;21627;48.216;16.482;2022-12-29T00:48:08;100074.66;;;-2.05;100.00
35519;BME280;21627;48.216;16.482;2022-12-29T00:50:35;100066.09;;;-2.07;100.00
35519;BME280;21627;48.216;16.482;2022-12-29T00:53:03;100073.34;;;-1.99;100.00
35519;BME280;21627;48.216;16.482;2022-12-29T00:55:30;100075.59;;;-2.03;100.00
35519;BME280;21627;48.216;16.482;2022-12-29T00:57:57;100081.53;;;-2.03;100.00
35519;BME280;21627;48.216;16.482;2022-12-29T01:00:25;100078.84;;;-2.06;100.00
35519;BME280;21627;48.216;16.482;2022-12-29T01:02:52;100070.72;;;-2.15;100.00
35519;BME280;21627;48.216;16.482;2022-12-29T01:05:19;100087.91;;;-2.09;100.00
35519;BME280;21627;48.216;16.482;2022-12-29T01:07:46;100087.06;;;-2.10;100.00
35519;BME280;21627;48.216;16.482;2022-12-29T01:10:14;100063.66;;;-2.21;100.00
35519;BME280;21627;48.216;16.482;2022-12-29T01:12:41;100081.81;;;-2.13;100.00
35519;BME280;21627;48.216;16.482;2022-12-29T01:15:13;100081.03;;;-2.12;100.00
35519;BME280;21627;48.216;16.482;2022-12-29T01:17:41;100097.13;;;-2.11;100.00
35519;BME280;21627;48.216;16.482;2022-12-29T01:20:09;100100.34;;;-2.14;100.00
35519;BME280;21627;48.216;16.482;2022-12-29T01:22:38;100077.84;;;-2.24;100.00
35519;BME280;21627;48.216;16.482;2022-12-29T01:25:06;100078.44;;;-2.28;100.00
35519;BME280;21627;48.216;16.482;2022-12-29T01:27:33;100089.69;;;-2.23;100.00
35519;BME280;21627;48.216;16.482;2022-12-29T01:30:01;100103.31;;;-2.21;100.00
35519;BME280;21627;48.216;16.482;2022-12-29T01:32:28;100091.00;;;-2.30;100.00
35519;BME280;21627;48.216;16.482;2022-12-29T01:34:58;100101.31;;;-2.27;100.00
35519;BME280;21627;48.216;16.482;2022-12-29T01:37:25;100103.84;;;-2.27;100.00
35519;BME280;21627;48.216;16.482;2022-12-29T01:39:52;100088.91;;;-2.37;100.00
35519;BME280;21627;48.216;16.482;2022-12-29T01:42:24;100107.00;;;-2.31;100.00
35519;BME280;21627;48.216;16.482;2022-12-29T01:44:58;100094.31;;;-2.31;100.00
35519;BME280;21627;48.216;16.482;2022-12-29T01:47:36;100100.09;;;-2.33;100.00
35519;BME280;21627;48.216;16.482;2022-12-29T01:52:58;100086.38;;;-2.37;100.00
35519;BME280;21627;48.216;16.482;2022-12-29T01:55:28;100088.03;;;-2.37;100.00
35519;BME280;21627;48.216;16.482;2022-12-29T01:57:58;100092.34;;;-2.36;100.00
35519;BME280;21627;48.216;16.482;2022-12-29T02:00:27;100077.56;;;-2.44;100.00
35519;BME280;21627;48.216;16.482;2022-12-29T02:02:54;100065.69;;;-2.45;100.00
35519;BME280;21627;48.216;16.482;2022-12-29T02:05:56;100067.44;;;-2.44;100.00
35519;BME280;21627;48.216;16.482;2022-12-29T02:08:28;100066.38;;;-2.47;100.00
35519;BME280;21627;48.216;16.482;2022-12-29T02:10:56;100058.09;;;-2.45;100.00
35519;BME280;21627;48.216;16.482;2022-12-29T02:13:26;100062.66;;;-2.39;100.00
35519;BME280;21627;48.216;16.482;2022-12-29T02:18:57;100061.75;;;-2.40;100.00
35519;BME280;21627;48.216;16.482;2022-12-29T02:32:02;100044.72;;;-2.42;100.00
35519;BME280;21627;48.216;16.482;2022-12-29T02:49:15;100029.81;;;-2.52;100.00
35519;BME280;21627;48.216;16.482;2022-12-29T02:51:58;100035.84;;;-2.50;100.00
35519;BME280;21627;48.216;16.482;2022-12-29T02:54:27;100037.50;;;-2.51;100.00
35519;BME280;21627;48.216;16.482;2022-12-29T02:57:31;100052.69;;;-2.51;100.00
35519;BME280;21627;48.216;16.482;2022-12-29T03:00:06;100037.41;;;-2.52;100.00
35519;BME280;21627;48.216;16.482;2022-12-29T03:08:55;100030.97;;;-2.62;100.00
35519;BME280;21627;48.216;16.482;2022-12-29T03:11:33;100045.63;;;-2.56;100.00
35519;BME280;21627;48.216;16.482;2022-12-29T03:14:32;100023.19;;;-2.65;100.00
35519;BME280;21627;48.216;16.482;2022-12-29T03:17:56;100030.69;;;-2.67;100.00
35519;BME280;21627;48.216;16.482;2022-12-29T03:20:43;100048.06;;;-2.58;100.00
35519;BME280;21627;48.216;16.482;2022-12-29T03:23:16;100036.91;;;-2.62;100.00
35519;BME280;21627;48.216;16.482;2022-12-29T03:25:52;100043.00;;;-2.58;100.00
35519;BME280;21627;48.216;16.482;2022-12-29T03:28:32;100037.75;;;-2.61;100.00
35519;BME280;21627;48.216;16.482;2022-12-29T03:31:03;100035.06;;;-2.64;100.00
35519;BME280;21627;48.216;16.482;2022-12-29T03:33:32;100025.44;;;-2.70;100.00
35519;BME280;21627;48.216;16.482;2022-12-29T03:36:04;100044.22;;;-2.66;100.00
35519;BME280;21627;48.216;16.482;2022-12-29T03:38:59;100043.34;;;-2.67;100.00
35519;BME280;21627;48.216;16.482;2022-12-29T03:41:31;100039.84;;;-2.69;100.00
35519;BME280;21627;48.216;16.482;2022-12-29T03:44:00;100046.75;;;-2.66;100.00
35519;BME280;21627;48.216;16.482;2022-12-29T03:46:27;100040.03;;;-2.66;100.00
35519;BME280;21627;48.216;16.482;2022-12-29T03:48:54;100030.16;;;-2.76;100.00
35519;BME280;21627;48.216;16.482;2022-12-29T03:51:21;100047.53;;;-2.67;100.00
35519;BME280;21627;48.216;16.482;2022-12-29T03:53:52;100051.81;;;-2.66;100.00
35519;BME280;21627;48.216;16.482;2022-12-29T03:56:20;100040.81;;;-2.67;100.00
35519;BME280;21627;48.216;16.482;2022-12-29T03:58:47;100033.66;;;-2.74;100.00
35519;BME280;21627;48.216;16.482;2022-12-29T04:01:14;100045.00;;;-2.67;100.00
35519;BME280;21627;48.216;16.482;2022-12-29T04:03:44;100046.66;;;-2.68;100.00
35519;BME280;21627;48.216;16.482;2022-12-29T04:06:11;100031.66;;;-2.79;100.00
35519;BME280;21627;48.216;16.482;2022-12-29T04:08:38;100050.84;;;-2.68;100.00
35519;BME280;21627;48.216;16.482;2022-12-29T04:11:05;100050.84;;;-2.68;100.00
35519;BME280;21627;48.216;16.482;2022-12-29T04:13:33;100045.00;;;-2.67;100.00
35519;BME280;21627;48.216;16.482;2022-12-29T04:16:00;100039.84;;;-2.69;100.00
35519;BME280;21627;48.216;16.482;2022-12-29T04:18:27;100046.75;;;-2.66;100.00
35519;BME280;21627;48.216;16.482;2022-12-29T04:20:54;100050.16;;;-2.66;100.00
35519;BME280;21627;48.216;16.482;2022-12-29T04:23:36;100050.84;;;-2.68;100.00
35519;BME280;21627;48.216;16.482;2022-12-29T04:26:06;100035.31;;;-2.74;100.00
35519;BME280;21627;48.216;16.482;2022-12-29T04:28:38;100046.47;;;-2.71;100.00
35519;BME280;21627;48.216;16.482;2022-12-29T04:31:05;100030.16;;;-2.76;100.00
35519;BME280;21627;48.216;16.482;2022-12-29T04:33:33;100052.50;;;-2.69;100.00
35519;BME280;21627;48.216;16.482;2022-12-29T04:36:00;100030.00;;;-2.79;100.00
35519;BME280;21627;48.216;16.482;2022-12-29T04:38:27;100055.63;;;-2.73;100.00
35519;BME280;21627;48.216;16.482;2022-12-29T04:40:55;100059.94;;;-2.72;100.00
35519;BME280;21627;48.216;16.482;2022-12-29T04:43:22;100055.75;;;-2.71;100.00
35519;BME280;21627;48.216;16.482;2022-12-29T04:45:51;100040.00;;;-2.80;100.00
35519;BME280;21627;48.216;16.482;2022-12-29T04:48:18;100051.38;;;-2.74;100.00
35519;BME280;21627;48.216;16.482;2022-12-29T04:50:48;100041.78;;;-2.79;100.00
35519;BME280;21627;48.216;16.482;2022-12-29T04:53:19;100050.56;;;-2.73;100.00
35519;BME280;21627;48.216;16.482;2022-12-29T04:55:51;100044.75;;;-2.72;100.00
35519;BME280;21627;48.216;16.482;2022-12-29T04:58:20;100039.59;;;-2.73;100.00
35519;BME280;21627;48.216;16.482;2022-12-29T05:00:50;100057.03;;;-2.63;100.00
35519;BME280;21627;48.216;16.482;2022-12-29T05:03:18;100048.41;;;-2.67;100.00
35519;BME280;21627;48.216;16.482;2022-12-29T05:05:45;100056.63;;;-2.56;100.00
35519;BME280;21627;48.216;16.482;2022-12-29T05:08:12;100053.38;;;-2.53;100.00
35519;BME280;21627;48.216;16.482;2022-12-29T05:10:43;100051.03;;;-2.50;100.00
35519;BME280;21627;48.216;16.482;2022-12-29T05:13:10;100048.66;;;-2.47;100.00
35519;BME280;21627;48.216;16.482;2022-12-29T05:15:37;100058.19;;;-2.43;100.00
35519;BME280;21627;48.216;16.482;2022-12-29T05:18:05;100045.78;;;-2.38;100.00
35519;BME280;21627;48.216;16.482;2022-12-29T05:20:33;100050.22;;;-2.34;100.00
35519;BME280;21627;48.216;16.482;2022-12-29T05:23:00;100048.84;;;-2.29;100.00
35519;BME280;21627;48.216;16.482;2022-12-29T05:25:27;100054.06;;;-2.26;100.00
35519;BME280;21627;48.216;16.482;2022-12-29T05:27:54;100031.78;;;-2.32;100.00
35519;BME280;21627;48.216;16.482;2022-12-29T05:30:21;100039.59;;;-2.29;100.00
35519;BME280;21627;48.216;16.482;2022-12-29T05:32:49;100051.25;;;-2.16;100.00
35519;BME280;21627;48.216;16.482;2022-12-29T05:35:34;100048.09;;;-2.12;100.00
35519;BME280;21627;48.216;16.482;2022-12-29T05:38:01;100032.56;;;-2.18;100.00
35519;BME280;21627;48.216;16.482;2022-12-29T05:40:29;100052.53;;;-2.08;100.00
35519;BME280;21627;48.216;16.482;2022-12-29T05:42:56;100053.78;;;-2.01;100.00
35519;BME280;21627;48.216;16.482;2022-12-29T05:45:23;100055.59;;;-1.99;100.00
35519;BME280;21627;48.216;16.482;2022-12-29T05:47:50;100049.31;;;-2.05;100.00
35519;BME280;21627;48.216;16.482;2022-12-29T05:50:17;100057.59;;;-1.93;100.00
35519;BME280;21627;48.216;16.482;2022-12-29T05:52:45;100056.97;;;-1.89;100.00
35519;BME280;21627;48.216;16.482;2022-12-29T05:55:12;100054.25;;;-1.92;100.00
35519;BME280;21627;48.216;16.482;2022-12-29T05:57:40;100059.31;;;-1.92;100.00
35519;BME280;21627;48.216;16.482;2022-12-29T06:00:08;100049.19;;;-1.92;100.00
35519;BME280;21627;48.216;16.482;2022-12-29T06:02:36;100044.13;;;-1.92;100.00
35519;BME280;21627;48.216;16.482;2022-12-29T06:05:04;100063.78;;;-1.88;100.00
35519;BME280;21627;48.216;16.482;2022-12-29T06:07:34;100043.25;;;-1.92;100.00
35519;BME280;21627;48.216;16.482;2022-12-29T06:10:01;100052.06;;;-1.86;100.00
35519;BME280;21627;48.216;16.482;2022-12-29T06:12:28;100037.41;;;-1.91;100.00
35519;BME280;21627;48.216;16.482;2022-12-29T06:14:55;100051.41;;;-1.82;100.00
35519;BME280;21627;48.216;16.482;2022-12-29T06:17:23;100051.53;;;-1.80;100.00
35519;BME280;21627;48.216;16.482;2022-12-29T06:19:53;100051.69;;;-1.77;100.00
35519;BME280;21627;48.216;16.482;2022-12-29T06:22:20;100037.81;;;-1.84;100.00
35519;BME280;21627;48.216;16.482;2022-12-29T06:24:47;100036.56;;;-1.59;100.00
35519;BME280;21627;48.216;16.482;2022-12-29T06:27:14;100048.78;;;-1.52;100.00
35519;BME280;21627;48.216;16.482;2022-12-29T06:29:43;100049.91;;;-1.47;100.00
35519;BME280;21627;48.216;16.482;2022-12-29T06:32:10;100059.88;;;-1.34;100.00
35519;BME280;21627;48.216;16.482;2022-12-29T06:34:37;100062.44;;;-1.17;100.00
35519;BME280;21627;48.216;16.482;2022-12-29T06:37:04;100058.06;;;-1.03;100.00
35519;BME280;21627;48.216;16.482;2022-12-29T06:39:32;100048.56;;;-1.07;100.00
35519;BME280;21627;48.216;16.482;2022-12-29T06:41:59;100067.19;;;-0.91;100.00
35519;BME280;21627;48.216;16.482;2022-12-29T06:44:26;100057.81;;;-0.92;100.00
35519;BME280;21627;48.216;16.482;2022-12-29T06:46:54;100077.16;;;-0.77;100.00
35519;BME280;21627;48.216;16.482;2022-12-29T06:49:21;100069.78;;;-0.73;100.00
35519;BME280;21627;48.216;16.482;2022-12-29T06:51:51;100075.88;;;-0.69;100.00
35519;BME280;21627;48.216;16.482;2022-12-29T06:54:22;100081.94;;;-0.49;100.00
35519;BME280;21627;48.216;16.482;2022-12-29T06:56:49;100074.09;;;-0.54;100.00
35519;BME280;21627;48.216;16.482;2022-12-29T06:59:16;100080.00;;;-0.37;100.00
35519;BME280;21627;48.216;16.482;2022-12-29T07:01:43;100074.56;;;-0.27;100.00
35519;BME280;21627;48.216;16.482;2022-12-29T07:04:10;100080.97;;;-0.17;100.00
35519;BME280;21627;48.216;16.482;2022-12-29T07:06:38;100073.41;;;-0.15;100.00
35519;BME280;21627;48.216;16.482;2022-12-29T07:09:05;100071.78;;;-0.15;100.00
35519;BME280;21627;48.216;16.482;2022-12-29T07:11:33;100084.13;;;-0.05;100.00
35519;BME280;21627;48.216;16.482;2022-12-29T07:14:00;100076.41;;;-0.06;100.00
35519;BME280;21627;48.216;16.482;2022-12-29T07:16:32;100069.41;;;-0.10;100.00
35519;BME280;21627;48.216;16.482;2022-12-29T07:19:00;100087.16;;;0.06;100.00
35519;BME280;21627;48.216;16.482;2022-12-29T07:21:27;100083.81;;;0.07;100.00
35519;BME280;21627;48.216;16.482;2022-12-29T07:23:54;100073.63;;;0.07;100.00
35519;BME280;21627;48.216;16.482;2022-12-29T07:26:22;100055.56;;;0.01;100.00
35519;BME280;21627;48.216;16.482;2022-12-29T07:28:49;100072.25;;;0.14;100.00
35519;BME280;21627;48.216;16.482;2022-12-29T07:31:20;100071.53;;;0.16;100.00
35519;BME280;21627;48.216;16.482;2022-12-29T07:33:47;100074.16;;;0.18;100.00
35519;BME280;21627;48.216;16.482;2022-12-29T07:36:16;100046.97;;;0.17;100.00
35519;BME280;21627;48.216;16.482;2022-12-29T07:38:43;100045.38;;;0.19;100.00
35519;BME280;21627;48.216;16.482;2022-12-29T07:41:10;100045.38;;;0.19;100.00
35519;BME280;21627;48.216;16.482;2022-12-29T07:43:38;100058.66;;;0.31;100.00
35519;BME280;21627;48.216;16.482;2022-12-29T07:46:05;100066.56;;;0.37;100.00
35519;BME280;21627;48.216;16.482;2022-12-29T07:48:32;100068.53;;;0.43;100.00
35519;BME280;21627;48.216;16.482;2022-12-29T07:51:02;100049.81;;;0.42;100.00
35519;BME280;21627;48.216;16.482;2022-12-29T07:53:30;100072.53;;;0.57;100.00
35519;BME280;21627;48.216;16.482;2022-12-29T07:55:57;100070.94;;;0.59;100.00
35519;BME280;21627;48.216;16.482;2022-12-29T07:58:24;100059.81;;;0.57;100.00
35519;BME280;21627;48.216;16.482;2022-12-29T08:00:57;100062.13;;;0.71;100.00
35519;BME280;21627;48.216;16.482;2022-12-29T08:03:25;100083.63;;;0.77;100.00
35519;BME280;21627;48.216;16.482;2022-12-29T08:05:52;100089.31;;;0.72;100.00
35519;BME280;21627;48.216;16.482;2022-12-29T08:08:20;100085.09;;;0.72;100.00
35519;BME280;21627;48.216;16.482;2022-12-29T08:10:48;100079.94;;;0.71;100.00
35519;BME280;21627;48.216;16.482;2022-12-29T08:13:15;100079.22;;;0.73;100.00
35519;BME280;21627;48.216;16.482;2022-12-29T08:15:42;100076.59;;;0.72;100.00
35519;BME280;21627;48.216;16.482;2022-12-29T08:18:09;100074.16;;;0.75;100.00
35519;BME280;21627;48.216;16.482;2022-12-29T08:20:37;100078.47;;;0.76;100.00
35519;BME280;21627;48.216;16.482;2022-12-29T08:23:04;100083.56;;;0.76;100.00
35519;BME280;21627;48.216;16.482;2022-12-29T08:25:31;100062.88;;;0.68;100.00
35519;BME280;21627;48.216;16.482;2022-12-29T08:27:58;100074.88;;;0.71;100.00
35519;BME280;21627;48.216;16.482;2022-12-29T08:30:25;100076.59;;;0.72;100.00
35519;BME280;21627;48.216;16.482;2022-12-29T08:32:52;100086.03;;;0.74;100.00
35519;BME280;21627;48.216;16.482;2022-12-29T08:35:19;100080.13;;;0.75;100.00
35519;BME280;21627;48.216;16.482;2022-12-29T08:37:47;100069.16;;;0.76;100.00
35519;BME280;21627;48.216;16.482;2022-12-29T08:40:14;100077.59;;;0.75;100.00
35519;BME280;21627;48.216;16.482;2022-12-29T08:42:41;100072.50;;;0.75;100.00
35519;BME280;21627;48.216;16.482;2022-12-29T08:45:09;100069.69;;;0.89;100.00
35519;BME280;21627;48.216;16.482;2022-12-29T08:47:36;100064.13;;;0.97;100.00
35519;BME280;21627;48.216;16.482;2022-12-29T08:50:04;100077.47;;;0.92;100.00
35519;BME280;21627;48.216;16.482;2022-12-29T08:52:31;100086.59;;;0.86;100.00
35519;BME280;21627;48.216;16.482;2022-12-29T08:54:59;100061.72;;;0.81;100.00
35519;BME280;21627;48.216;16.482;2022-12-29T08:57:26;100061.91;;;0.85;100.00
35519;BME280;21627;48.216;16.482;2022-12-29T08:59:53;100078.13;;;0.88;100.00
35519;BME280;21627;48.216;16.482;2022-12-29T09:02:20;100071.19;;;0.83;100.00
35519;BME280;21627;48.216;16.482;2022-12-29T09:04:51;100069.03;;;0.73;100.00
35519;BME280;21627;48.216;16.482;2022-12-29T09:07:18;100060.59;;;0.74;100.00
35519;BME280;21627;48.216;16.482;2022-12-29T09:09:45;100057.34;;;0.59;100.00
35519;BME280;21627;48.216;16.482;2022-12-29T09:12:12;100072.09;;;0.66;100.00
35519;BME280;21627;48.216;16.482;2022-12-29T09:14:40;100061.06;;;0.66;100.00
35519;BME280;21627;48.216;16.482;2022-12-29T09:17:07;100072.38;;;0.72;100.00
35519;BME280;21627;48.216;16.482;2022-12-29T09:19:53;100065.34;;;0.67;100.00
35519;BME280;21627;48.216;16.482;2022-12-29T09:22:20;100058.03;;;0.74;100.00
35519;BME280;21627;48.216;16.482;2022-12-29T09:24:47;100059.75;;;0.75;100.00
35519;BME280;21627;48.216;16.482;2022-12-29T09:27:15;100053.91;;;0.76;100.00
35519;BME280;21627;48.216;16.482;2022-12-29T09:29:42;100052.94;;;0.74;100.00
35519;BME280;21627;48.216;16.482;2022-12-29T09:32:09;100043.84;;;0.79;100.00
35519;BME280;21627;48.216;16.482;2022-12-29T09:34:44;100044.84;;;0.83;100.00
35519;BME280;21627;48.216;16.482;2022-12-29T09:37:12;100031.25;;;0.82;100.00
35519;BME280;21627;48.216;16.482;2022-12-29T09:39:39;100005.94;;;0.66;100.00
35519;BME280;21627;48.216;16.482;2022-12-29T09:47:32;100029.44;;;0.80;100.00
35519;BME280;21627;48.216;16.482;2022-12-29T09:50:10;100042.91;;;0.97;100.00
35519;BME280;21627;48.216;16.482;2022-12-29T09:52:55;100040.16;;;0.92;100.00
35519;BME280;21627;48.216;16.482;2022-12-29T09:55:36;100032.59;;;0.94;100.00
35519;BME280;21627;48.216;16.482;2022-12-29T09:58:26;100037.72;;;0.95;100.00
35519;BME280;21627;48.216;16.482;2022-12-29T10:01:14;100031.56;;;0.90;100.00
35519;BME280;21627;48.216;16.482;2022-12-29T10:03:51;100035.47;;;0.82;100.00
35519;BME280;21627;48.216;16.482;2022-12-29T10:06:45;100023.56;;;0.81;100.00
35519;BME280;21627;48.216;16.482;2022-12-29T10:15:59;100031.84;;;0.96;100.00
35519;BME280;21627;48.216;16.482;2022-12-29T10:25:20;100013.97;;;1.16;100.00
35519;BME280;21627;48.216;16.482;2022-12-29T10:27:56;100015.84;;;1.20;100.00
35519;BME280;21627;48.216;16.482;2022-12-29T10:30:26;100013.00;;;1.12;100.00
35519;BME280;21627;48.216;16.482;2022-12-29T10:33:00;100013.75;;;1.30;100.00
35519;BME280;21627;48.216;16.482;2022-12-29T10:35:36;100006.38;;;1.37;100.00
35519;BME280;21627;48.216;16.482;2022-12-29T10:38:28;100005.84;;;1.45;100.00
35519;BME280;21627;48.216;16.482;2022-12-29T10:41:13;100008.69;;;1.51;100.00
35519;BME280;21627;48.216;16.482;2022-12-29T10:43:49;100004.00;;;1.62;100.00
35519;BME280;21627;48.216;16.482;2022-12-29T10:46:29;100010.34;;;1.72;100.00
35519;BME280;21627;48.216;16.482;2022-12-29T10:48:57;99994.94;;;1.69;100.00
35519;BME280;21627;48.216;16.482;2022-12-29T10:51:30;100013.75;;;1.72;100.00
35519;BME280;21627;48.216;16.482;2022-12-29T10:54:05;100020.53;;;1.72;100.00
35519;BME280;21627;48.216;16.482;2022-12-29T10:56:42;100004.88;;;1.63;100.00
35519;BME280;21627;48.216;16.482;2022-12-29T11:05:06;100014.25;;;1.64;100.00
35519;BME280;21627;48.216;16.482;2022-12-29T11:07:39;100007.41;;;1.63;100.00
35519;BME280;21627;48.216;16.482;2022-12-29T11:10:38;99999.75;;;1.63;100.00
35519;BME280;21627;48.216;16.482;2022-12-29T11:13:14;99992.22;;;1.66;100.00
35519;BME280;21627;48.216;16.482;2022-12-29T11:15:50;99994.84;;;1.67;100.00
35519;BME280;21627;48.216;16.482;2022-12-29T11:21:01;99998.88;;;1.83;100.00
35519;BME280;21627;48.216;16.482;2022-12-29T11:28:38;99996.47;;;1.65;100.00
35519;BME280;21627;48.216;16.482;2022-12-29T11:31:07;99994.75;;;1.64;100.00
35519;BME280;21627;48.216;16.482;2022-12-29T11:33:38;99986.34;;;1.67;100.00
35519;BME280;21627;48.216;16.482;2022-12-29T11:36:08;99979.56;;;1.67;100.00
35519;BME280;21627;48.216;16.482;2022-12-29T11:38:45;99978.13;;;1.74;100.00
35519;BME280;21627;48.216;16.482;2022-12-29T11:41:18;99971.09;;;1.68;100.00
35519;BME280;21627;48.216;16.482;2022-12-29T11:43:47;99971.75;;;1.85;100.00
35519;BME280;21627;48.216;16.482;2022-12-29T11:46:28;99987.28;;;1.91;100.00
35519;BME280;21627;48.216;16.482;2022-12-29T11:48:57;99972.91;;;1.93;100.00
35519;BME280;21627;48.216;16.482;2022-12-29T11:51:39;99961.91;;;1.94;100.00
35519;BME280;21627;48.216;16.482;2022-12-29T11:54:29;99973.19;;;2.01;100.00
35519;BME280;21627;48.216;16.482;2022-12-29T11:57:14;99969.97;;;2.05;100.00
35519;BME280;21627;48.216;16.482;2022-12-29T11:59:55;99970.78;;;2.04;100.00
35519;BME280;21627;48.216;16.482;2022-12-29T12:05:23;99967.50;;;2.08;100.00
35519;BME280;21627;48.216;16.482;2022-12-29T12:14:15;99962.41;;;2.31;100.00
35519;BME280;21627;48.216;16.482;2022-12-29T12:16:57;99952.44;;;2.37;100.00
35519;BME280;21627;48.216;16.482;2022-12-29T12:19:43;99954.53;;;2.49;100.00
35519;BME280;21627;48.216;16.482;2022-12-29T12:25:04;99938.47;;;2.51;100.00
35519;BME280;21627;48.216;16.482;2022-12-29T12:27:41;99954.16;;;2.62;100.00
35519;BME280;21627;48.216;16.482;2022-12-29T12:32:54;99940.78;;;2.69;100.00
35519;BME280;21627;48.216;16.482;2022-12-29T12:35:57;99922.03;;;2.69;100.00
35519;BME280;21627;48.216;16.482;2022-12-29T12:51:38;99933.44;;;3.04;100.00
35519;BME280;21627;48.216;16.482;2022-12-29T12:57:45;99935.16;;;3.31;100.00
35519;BME280;21627;48.216;16.482;2022-12-29T13:00:19;99928.22;;;3.54;100.00
35519;BME280;21627;48.216;16.482;2022-12-29T13:08:52;99934.50;;;3.63;100.00
35519;BME280;21627;48.216;16.482;2022-12-29T13:22:45;99910.75;;;3.96;100.00
35519;BME280;21627;48.216;16.482;2022-12-29T13:25:27;99917.50;;;4.24;100.00
35519;BME280;21627;48.216;16.482;2022-12-29T13:31:09;99907.97;;;4.19;100.00
35519;BME280;21627;48.216;16.482;2022-12-29T13:36:33;99924.75;;;4.09;100.00
35519;BME280;21627;48.216;16.482;2022-12-29T13:41:54;99925.34;;;4.00;100.00
35519;BME280;21627;48.216;16.482;2022-12-29T13:44:46;99924.59;;;3.74;100.00
35519;BME280;21627;48.216;16.482;2022-12-29T13:49:46;99933.09;;;3.73;100.00
35519;BME280;21627;48.216;16.482;2022-12-29T13:52:45;99920.38;;;3.76;100.00
35519;BME280;21627;48.216;16.482;2022-12-29T13:58:46;99941.56;;;3.72;100.00
35519;BME280;21627;48.216;16.482;2022-12-29T14:01:19;99948.97;;;3.63;100.00
35519;BME280;21627;48.216;16.482;2022-12-29T14:03:59;99922.00;;;3.45;100.00
35519;BME280;21627;48.216;16.482;2022-12-29T14:06:30;99913.81;;;3.29;100.00
35519;BME280;21627;48.216;16.482;2022-12-29T14:12:01;99940.16;;;3.00;100.00
35519;BME280;21627;48.216;16.482;2022-12-29T14:14:30;99926.63;;;2.77;100.00
35519;BME280;21627;48.216;16.482;2022-12-29T14:17:11;99941.09;;;2.78;100.00
35519;BME280;21627;48.216;16.482;2022-12-29T14:19:43;99946.81;;;2.71;100.00
35519;BME280;21627;48.216;16.482;2022-12-29T14:22:12;99940.78;;;2.69;100.00
35519;BME280;21627;48.216;16.482;2022-12-29T14:24:46;99940.22;;;2.52;100.00
35519;BME280;21627;48.216;16.482;2022-12-29T14:37:48;99930.25;;;2.12;100.00
35519;BME280;21627;48.216;16.482;2022-12-29T14:40:31;99940.69;;;2.18;100.00
35519;BME280;21627;48.216;16.482;2022-12-29T14:43:00;99935.69;;;1.99;100.00
35519;BME280;21627;48.216;16.482;2022-12-29T14:45:29;99941.53;;;1.94;100.00
35519;BME280;21627;48.216;16.482;2022-12-29T14:47:59;99952.78;;;2.01;100.00
35519;BME280;21627;48.216;16.482;2022-12-29T14:50:39;99934.94;;;1.79;100.00
35519;BME280;21627;48.216;16.482;2022-12-29T14:53:44;99944.34;;;1.80;100.00
35519;BME280;21627;48.216;16.482;2022-12-29T14:56:16;99942.16;;;1.66;100.00
35519;BME280;21627;48.216;16.482;2022-12-29T14:59:00;99947.19;;;1.65;100.00
35519;BME280;21627;48.216;16.482;2022-12-29T15:01:49;99930.28;;;1.46;100.00
35519;BME280;21627;48.216;16.482;2022-12-29T15:04:22;99943.50;;;1.58;100.00
35519;BME280;21627;48.216;16.482;2022-12-29T15:06:51;99946.81;;;1.56;100.00
35519;BME280;21627;48.216;16.482;2022-12-29T15:09:41;99951.50;;;1.45;100.00
35519;BME280;21627;48.216;16.482;2022-12-29T15:14:58;99961.00;;;1.49;100.00
35519;BME280;21627;48.216;16.482;2022-12-29T15:17:32;99957.91;;;1.35;100.00
35519;BME280;21627;48.216;16.482;2022-12-29T15:20:30;99959.47;;;1.32;100.00
35519;BME280;21627;48.216;16.482;2022-12-29T15:23:03;99937.66;;;1.17;100.00
35519;BME280;21627;48.216;16.482;2022-12-29T15:25:35;99942.13;;;1.23;100.00
35519;BME280;21627;48.216;16.482;2022-12-29T15:28:05;99935.72;;;1.12;100.00
35519;BME280;21627;48.216;16.482;2022-12-29T15:30:33;99948.50;;;1.13;100.00
35519;BME280;21627;48.216;16.482;2022-12-29T15:33:00;99946.22;;;0.98;100.00